createdAt,value
2023-09-13T00:02:25.261Z,20.17
2023-09-13T00:04:51.992Z,20.16
2023-09-13T00:07:19.558Z,20.16
2023-09-13T00:09:46.272Z,20.18
2023-09-13T00:12:13.358Z,20.17
2023-09-13T00:14:39.933Z,20.20
2023-09-13T00:17:06.534Z,20.24
2023-09-13T00:19:33.147Z,20.22
2023-09-13T00:21:59.803Z,20.22
2023-09-13T00:24:26.489Z,20.22
2023-09-13T00:26:53.135Z,20.17
2023-09-13T00:29:19.763Z,20.14
2023-09-13T00:31:46.885Z,20.13
2023-09-13T00:34:14.042Z,20.11
2023-09-13T00:36:41.468Z,20.08
2023-09-13T00:39:08.271Z,20.08
2023-09-13T00:41:34.923Z,20.07
2023-09-13T00:44:01.659Z,20.10
2023-09-13T00:46:29.280Z,20.11
2023-09-13T00:48:57.073Z,20.14
2023-09-13T00:51:23.919Z,20.16
2023-09-13T00:53:50.656Z,20.15
2023-09-13T00:56:18.275Z,20.13
2023-09-13T00:58:45.785Z,20.12
2023-09-13T01:01:14.380Z,20.12
2023-09-13T01:03:43.926Z,20.11
2023-09-13T01:06:12.437Z,20.10
2023-09-13T01:08:43.887Z,20.10
2023-09-13T01:11:10.511Z,20.10
2023-09-13T01:13:37.163Z,20.13
2023-09-13T01:16:15.729Z,20.12
2023-09-13T01:19:00.550Z,20.13
2023-09-13T01:21:41.376Z,20.18
2023-09-13T01:24:21.276Z,20.19
2023-09-13T01:27:08.116Z,20.19
2023-09-13T01:29:36.003Z,20.22
2023-09-13T01:32:03.519Z,20.22
2023-09-13T01:34:30.314Z,20.24
2023-09-13T01:36:57.746Z,20.27
2023-09-13T01:39:24.609Z,20.28
2023-09-13T01:41:57.713Z,20.30
2023-09-13T01:44:25.194Z,20.34
2023-09-13T01:46:53.528Z,20.40
2023-09-13T01:49:21.960Z,20.47
2023-09-13T01:51:50.114Z,20.48
2023-09-13T01:54:20.189Z,20.45
2023-09-13T01:56:46.742Z,20.43
2023-09-13T01:59:13.359Z,20.46
2023-09-13T02:01:40.058Z,20.39
2023-09-13T02:04:07.219Z,20.36
2023-09-13T02:06:33.798Z,20.32
2023-09-13T02:09:00.565Z,20.31
2023-09-13T02:11:27.114Z,20.28
2023-09-13T02:13:53.710Z,20.23
2023-09-13T02:16:23.673Z,20.20
2023-09-13T02:18:50.389Z,20.21
2023-09-13T02:21:17.712Z,20.25
2023-09-13T02:23:44.716Z,20.28
2023-09-13T02:26:21.347Z,20.25
2023-09-13T02:28:48.252Z,20.25
2023-09-13T02:31:22.089Z,20.24
2023-09-13T02:33:48.714Z,20.25
2023-09-13T02:36:15.308Z,20.23
2023-09-13T02:38:42.001Z,20.24
2023-09-13T02:41:08.657Z,20.20
2023-09-13T02:43:35.198Z,20.21
2023-09-13T02:46:01.819Z,20.23
2023-09-13T02:48:28.428Z,20.23
2023-09-13T02:50:54.993Z,20.19
2023-09-13T02:53:21.641Z,20.17
2023-09-13T02:55:48.239Z,20.11
2023-09-13T02:58:15.148Z,20.06
2023-09-13T03:00:45.087Z,20.03
2023-09-13T03:03:11.813Z,20.02
2023-09-13T03:05:38.419Z,19.97
2023-09-13T03:08:05.650Z,19.97
2023-09-13T03:10:34.310Z,19.94
2023-09-13T03:13:00.995Z,19.92
2023-09-13T03:15:27.601Z,19.92
2023-09-13T03:17:54.300Z,19.94
2023-09-13T03:20:20.889Z,19.90
2023-09-13T03:22:47.473Z,19.89
2023-09-13T03:25:14.114Z,19.84
2023-09-13T03:27:40.746Z,19.79
2023-09-13T03:30:07.750Z,19.76
2023-09-13T03:32:34.405Z,19.75
2023-09-13T03:35:01.072Z,19.72
2023-09-13T03:37:27.746Z,19.67
2023-09-13T03:39:54.327Z,19.65
2023-09-13T03:42:21.195Z,19.64
2023-09-13T03:44:48.125Z,19.58
2023-09-13T03:47:15.273Z,19.52
2023-09-13T03:49:41.911Z,19.49
2023-09-13T03:52:08.513Z,19.48
2023-09-13T03:54:35.167Z,19.47
2023-09-13T03:57:01.761Z,19.41
2023-09-13T03:59:28.362Z,19.41
2023-09-13T04:01:56.385Z,19.41
2023-09-13T04:04:25.284Z,19.39
2023-09-13T04:06:52.083Z,19.41
2023-09-13T04:09:19.255Z,19.40
2023-09-13T04:11:45.852Z,19.38
2023-09-13T04:14:12.619Z,19.38
2023-09-13T04:16:39.341Z,19.38
2023-09-13T04:19:06.064Z,19.39
2023-09-13T04:21:32.624Z,19.41
2023-09-13T04:23:59.906Z,19.40
2023-09-13T04:26:26.540Z,19.42
2023-09-13T04:28:54.667Z,19.44
2023-09-13T04:31:21.481Z,19.44
2023-09-13T04:33:55.728Z,19.42
2023-09-13T04:36:22.430Z,19.43
2023-09-13T04:38:49.357Z,19.41
2023-09-13T04:41:17.401Z,19.40
2023-09-13T04:43:44.561Z,19.41
2023-09-13T04:46:12.037Z,19.41
2023-09-13T04:48:38.818Z,19.43
2023-09-13T04:51:06.004Z,19.95
2023-09-13T04:53:34.316Z,20.60
2023-09-13T04:56:02.019Z,21.18
2023-09-13T04:58:32.087Z,21.46
2023-09-13T05:01:00.132Z,21.74
2023-09-13T05:03:27.109Z,22.02
2023-09-13T05:05:55.704Z,22.13
2023-09-13T05:08:22.249Z,22.31
2023-09-13T05:10:48.988Z,22.50
2023-09-13T05:13:15.633Z,22.44
2023-09-13T05:15:43.694Z,22.56
2023-09-13T05:18:10.428Z,22.57
2023-09-13T05:20:37.548Z,22.43
2023-09-13T05:23:05.700Z,22.18
2023-09-13T05:25:32.378Z,21.67
2023-09-13T05:27:59.014Z,21.48
2023-09-13T05:30:26.384Z,21.15
2023-09-13T05:32:53.129Z,20.81
2023-09-13T05:35:19.830Z,20.72
2023-09-13T05:37:46.403Z,20.60
2023-09-13T05:40:13.133Z,20.50
2023-09-13T05:42:39.716Z,20.38
2023-09-13T05:45:06.795Z,20.41
2023-09-13T05:47:33.392Z,20.34
2023-09-13T05:49:59.949Z,20.29
2023-09-13T05:52:26.579Z,20.24
2023-09-13T05:54:53.225Z,20.19
2023-09-13T05:57:19.836Z,20.03
2023-09-13T05:59:46.463Z,19.92
2023-09-13T06:02:13.123Z,19.91
2023-09-13T06:04:39.762Z,19.83
2023-09-13T06:07:06.496Z,19.91
2023-09-13T06:09:33.042Z,19.89
2023-09-13T06:12:02.835Z,19.97
2023-09-13T06:14:29.654Z,19.98
2023-09-13T06:16:56.255Z,19.90
2023-09-13T06:19:23.035Z,19.86
2023-09-13T06:21:49.805Z,19.86
2023-09-13T06:24:16.462Z,19.94
2023-09-13T06:26:43.011Z,19.90
2023-09-13T06:29:11.334Z,19.85
2023-09-13T06:31:41.603Z,19.87
2023-09-13T06:34:22.938Z,19.84
2023-09-13T06:36:52.922Z,19.87
2023-09-13T06:39:20.038Z,19.93
2023-09-13T06:41:46.778Z,20.02
2023-09-13T06:44:13.694Z,20.03
2023-09-13T06:46:47.602Z,20.09
2023-09-13T06:49:18.021Z,20.14
2023-09-13T06:51:51.525Z,20.33
2023-09-13T06:54:21.609Z,20.55
2023-09-13T06:56:51.792Z,20.54
2023-09-13T06:59:21.839Z,20.54
2023-09-13T07:04:26.568Z,20.56
2023-09-13T07:06:58.562Z,20.56
2023-09-13T07:09:25.421Z,20.52
2023-09-13T07:11:52.156Z,20.72
2023-09-13T07:14:19.312Z,20.79
2023-09-13T07:16:46.047Z,20.97
2023-09-13T07:19:12.739Z,21.06
2023-09-13T07:21:39.338Z,21.06
2023-09-13T07:24:06.190Z,21.06
2023-09-13T07:26:32.796Z,21.16
2023-09-13T07:28:59.490Z,21.28
2023-09-13T07:31:26.196Z,21.39
2023-09-13T07:33:52.884Z,21.54
2023-09-13T07:36:19.508Z,21.74
2023-09-13T07:38:46.531Z,21.88
2023-09-13T07:41:14.247Z,22.03
2023-09-13T07:43:40.962Z,22.15
2023-09-13T07:46:07.615Z,22.20
2023-09-13T07:48:34.430Z,22.24
2023-09-13T07:51:01.108Z,22.17
2023-09-13T07:53:27.800Z,22.11
2023-09-13T07:55:54.467Z,22.09
2023-09-13T07:58:21.219Z,22.02
2023-09-13T08:00:48.264Z,21.97
2023-09-13T08:03:15.349Z,22.01
2023-09-13T08:05:43.679Z,22.23
2023-09-13T08:08:10.816Z,22.30
2023-09-13T08:10:37.820Z,22.28
2023-09-13T08:13:04.636Z,22.52
2023-09-13T08:15:43.476Z,22.57
2023-09-13T08:18:15.878Z,22.50
2023-09-13T08:20:42.933Z,22.72
2023-09-13T08:23:09.700Z,22.61
2023-09-13T08:25:36.605Z,22.43
2023-09-13T08:28:05.281Z,22.55
2023-09-13T08:30:32.071Z,22.53
2023-09-13T08:32:58.763Z,22.51
2023-09-13T08:35:25.404Z,22.70
2023-09-13T08:37:52.147Z,22.69
2023-09-13T08:40:18.877Z,22.75
2023-09-13T08:42:47.422Z,23.06
2023-09-13T08:45:14.357Z,23.32
2023-09-13T08:50:20.972Z,23.51
2023-09-13T08:52:48.780Z,23.33
2023-09-13T08:55:16.468Z,23.45
2023-09-13T08:57:43.557Z,23.58
2023-09-13T09:00:10.740Z,23.56
2023-09-13T09:02:38.875Z,23.39
2023-09-13T09:05:11.778Z,23.30
2023-09-13T09:07:40.842Z,23.38
2023-09-13T09:10:12.600Z,23.27
2023-09-13T09:12:49.938Z,23.20
2023-09-13T09:15:19.385Z,23.19
2023-09-13T09:17:50.700Z,23.21
2023-09-13T09:20:19.487Z,23.32
2023-09-13T09:22:46.154Z,23.41
2023-09-13T09:25:14.786Z,23.45
2023-09-13T09:27:42.357Z,23.51
2023-09-13T09:30:15.828Z,23.55
2023-09-13T09:32:45.190Z,23.69
2023-09-13T09:35:13.025Z,23.80
2023-09-13T09:37:39.696Z,23.84
2023-09-13T09:40:16.130Z,23.93
2023-09-13T09:42:42.902Z,24.00
2023-09-13T09:45:09.964Z,24.05
2023-09-13T09:47:42.389Z,24.24
2023-09-13T09:50:12.737Z,24.45
2023-09-13T09:52:39.609Z,24.38
2023-09-13T09:55:06.608Z,24.28
2023-09-13T09:57:34.179Z,24.22
2023-09-13T10:00:01.363Z,24.37
2023-09-13T10:02:29.194Z,24.48
2023-09-13T10:04:56.050Z,24.57
2023-09-13T10:07:22.693Z,24.55
2023-09-13T10:09:49.413Z,24.46
2023-09-13T10:12:16.547Z,24.41
2023-09-13T10:14:45.403Z,24.55
2023-09-13T10:17:13.099Z,24.73
2023-09-13T10:19:42.467Z,24.71
2023-09-13T10:22:09.883Z,24.61
2023-09-13T10:24:41.074Z,24.50
2023-09-13T10:27:08.964Z,24.51
2023-09-13T10:29:46.339Z,24.61
2023-09-13T10:32:16.362Z,24.75
2023-09-13T10:34:50.384Z,24.95
2023-09-13T10:37:35.563Z,25.12
2023-09-13T10:40:15.889Z,25.12
2023-09-13T10:42:43.781Z,25.08
2023-09-13T10:45:15.510Z,24.99
2023-09-13T10:47:42.401Z,24.87
2023-09-13T10:50:10.039Z,24.72
2023-09-13T10:52:37.681Z,24.65
2023-09-13T10:55:08.216Z,24.68
2023-09-13T10:57:35.891Z,24.63
2023-09-13T11:00:10.089Z,24.63
2023-09-13T11:02:48.439Z,24.66
2023-09-13T11:05:17.297Z,24.70
2023-09-13T11:07:49.535Z,24.71
2023-09-13T11:10:20.687Z,24.76
2023-09-13T11:12:51.467Z,24.78
2023-09-13T11:15:26.353Z,24.84
2023-09-13T11:18:13.628Z,24.82
2023-09-13T11:20:41.516Z,24.96
2023-09-13T11:23:26.555Z,25.28
2023-09-13T11:26:10.811Z,25.25
2023-09-13T11:28:40.692Z,25.12
2023-09-13T11:31:12.270Z,24.98
2023-09-13T11:33:41.138Z,24.82
2023-09-13T11:36:09.352Z,24.77
2023-09-13T11:38:36.395Z,24.68
2023-09-13T11:41:03.001Z,24.55
2023-09-13T11:43:34.314Z,24.59
2023-09-13T11:46:01.895Z,24.55
2023-09-13T11:48:30.462Z,24.59
2023-09-13T11:51:15.905Z,24.58
2023-09-13T11:53:44.914Z,24.51
2023-09-13T11:56:50.136Z,24.27
2023-09-13T11:59:20.164Z,24.23
2023-09-13T12:01:53.043Z,24.36
2023-09-13T12:07:02.778Z,24.66
2023-09-13T12:09:31.990Z,24.92
2023-09-13T12:12:06.153Z,25.04
2023-09-13T12:14:56.722Z,25.25
2023-09-13T12:17:20.937Z,25.60
2023-09-13T12:19:48.773Z,25.67
2023-09-13T12:22:17.201Z,25.81
2023-09-13T12:24:52.705Z,25.90
2023-09-13T12:27:19.351Z,25.88
2023-09-13T12:29:48.023Z,25.85
2023-09-13T12:32:16.189Z,25.81
2023-09-13T12:34:43.392Z,25.82
2023-09-13T12:37:10.120Z,25.89
2023-09-13T12:39:36.750Z,26.08
2023-09-13T12:42:09.193Z,26.37
2023-09-13T12:44:38.513Z,26.66
2023-09-13T12:47:06.385Z,26.66
2023-09-13T12:49:38.235Z,26.48
2023-09-13T12:52:06.277Z,26.22
2023-09-13T12:54:36.566Z,26.15
2023-09-13T12:57:06.427Z,26.09
2023-09-13T12:59:46.771Z,26.00
2023-09-13T13:02:19.381Z,25.77
2023-09-13T13:04:47.299Z,25.53
2023-09-13T13:07:23.237Z,25.47
2023-09-13T13:09:54.348Z,25.39
2023-09-13T13:12:21.069Z,25.25
2023-09-13T13:14:52.139Z,25.14
2023-09-13T13:17:19.204Z,24.96
2023-09-13T13:19:55.979Z,24.83
2023-09-13T13:22:25.302Z,24.77
2023-09-13T13:24:53.590Z,24.80
2023-09-13T13:27:20.580Z,24.77
2023-09-13T13:29:47.430Z,24.71
2023-09-13T13:32:14.086Z,24.70
2023-09-13T13:34:40.822Z,24.65
2023-09-13T13:37:07.576Z,24.61
2023-09-13T13:39:34.315Z,24.58
2023-09-13T13:42:01.075Z,24.59
2023-09-13T13:44:28.735Z,24.75
2023-09-13T13:46:55.272Z,24.86
2023-09-13T13:49:21.887Z,24.91
2023-09-13T13:51:51.881Z,24.85
2023-09-13T13:54:19.662Z,24.79
2023-09-13T13:56:47.560Z,24.79
2023-09-13T13:59:15.433Z,24.85
2023-09-13T14:01:42.557Z,25.05
2023-09-13T14:04:09.632Z,25.32
2023-09-13T14:06:36.735Z,25.56
2023-09-13T14:09:06.267Z,25.78
2023-09-13T14:11:34.440Z,25.75
2023-09-13T14:14:01.172Z,26.15
2023-09-13T14:16:27.816Z,26.84
2023-09-13T14:18:54.551Z,27.66
2023-09-13T14:21:21.262Z,27.94
2023-09-13T14:23:48.181Z,27.85
2023-09-13T14:26:14.905Z,27.51
2023-09-13T14:28:41.464Z,27.25
2023-09-13T14:31:13.635Z,26.85
2023-09-13T14:33:43.648Z,26.54
2023-09-13T14:36:11.157Z,26.41
2023-09-13T14:38:38.019Z,26.60
2023-09-13T14:41:04.629Z,26.83
2023-09-13T14:43:31.239Z,26.70
2023-09-13T14:45:57.952Z,26.54
2023-09-13T14:48:24.850Z,26.47
2023-09-13T14:50:51.577Z,27.21
2023-09-13T14:53:18.193Z,27.52
2023-09-13T14:55:46.428Z,27.90
2023-09-13T14:58:13.049Z,28.02
2023-09-13T15:00:39.626Z,27.87
2023-09-13T15:03:06.319Z,27.43
2023-09-13T15:05:32.963Z,26.94
2023-09-13T15:07:59.506Z,26.49
2023-09-13T15:10:30.307Z,26.17
2023-09-13T15:12:58.521Z,25.93
2023-09-13T15:15:25.352Z,25.66
2023-09-13T15:17:53.768Z,25.41
2023-09-13T15:20:20.608Z,25.21
2023-09-13T15:22:47.349Z,25.06
2023-09-13T15:25:13.998Z,25.10
2023-09-13T15:27:41.788Z,25.18
2023-09-13T15:30:09.688Z,25.12
2023-09-13T15:32:36.359Z,25.07
2023-09-13T15:35:04.386Z,24.99
2023-09-13T15:37:30.996Z,24.91
2023-09-13T15:40:08.881Z,24.81
2023-09-13T15:42:35.816Z,24.77
2023-09-13T15:45:03.415Z,24.79
2023-09-13T15:47:30.066Z,24.90
2023-09-13T15:49:56.691Z,25.12
2023-09-13T15:52:23.246Z,25.16
2023-09-13T15:54:49.917Z,25.14
2023-09-13T15:57:18.007Z,25.02
2023-09-13T15:59:44.604Z,24.96
2023-09-13T16:02:12.230Z,24.93
2023-09-13T16:04:40.497Z,24.92
2023-09-13T16:07:07.205Z,24.81
2023-09-13T16:09:33.799Z,24.70
2023-09-13T16:12:00.421Z,24.56
2023-09-13T16:14:33.139Z,24.46
2023-09-13T16:17:01.608Z,24.42
2023-09-13T16:19:29.187Z,24.36
2023-09-13T16:21:56.231Z,24.33
2023-09-13T16:24:22.941Z,24.31
2023-09-13T16:26:49.531Z,24.33
2023-09-13T16:29:16.176Z,24.28
2023-09-13T16:31:42.812Z,24.20
2023-09-13T16:34:09.572Z,24.12
2023-09-13T16:36:36.299Z,24.11
2023-09-13T16:39:03.706Z,24.08
2023-09-13T16:41:30.368Z,24.02
2023-09-13T16:43:57.223Z,24.00
2023-09-13T16:46:23.937Z,24.02
2023-09-13T16:48:51.236Z,23.99
2023-09-13T16:51:18.081Z,23.97
2023-09-13T16:53:44.611Z,24.05
2023-09-13T16:56:11.404Z,24.10
2023-09-13T16:58:37.996Z,24.06
2023-09-13T17:01:05.165Z,24.04
2023-09-13T17:03:31.957Z,24.05
2023-09-13T17:05:59.908Z,24.02
2023-09-13T17:08:26.493Z,24.03
2023-09-13T17:10:53.146Z,24.03
2023-09-13T17:13:24.260Z,24.05
2023-09-13T17:15:51.293Z,24.06
2023-09-13T17:18:18.261Z,24.05
2023-09-13T17:20:45.132Z,24.00
2023-09-13T17:23:11.942Z,23.94
2023-09-13T17:25:39.365Z,23.91
2023-09-13T17:28:06.295Z,23.86
2023-09-13T17:30:36.833Z,23.81
2023-09-13T17:33:03.936Z,23.76
2023-09-13T17:35:30.646Z,23.67
2023-09-13T17:37:57.830Z,23.62
2023-09-13T17:40:24.551Z,23.56
2023-09-13T17:42:51.229Z,23.49
2023-09-13T17:45:18.040Z,23.40
2023-09-13T17:47:46.465Z,23.31
2023-09-13T17:50:13.551Z,23.17
2023-09-13T17:52:40.792Z,23.09
2023-09-13T17:55:09.258Z,23.01
2023-09-13T17:57:40.164Z,22.92
2023-09-13T18:00:07.591Z,22.85
2023-09-13T18:02:34.370Z,22.79
2023-09-13T18:05:02.172Z,22.76
2023-09-13T18:07:31.850Z,22.71
2023-09-13T18:09:59.629Z,22.65
2023-09-13T18:12:26.935Z,22.57
2023-09-13T18:14:55.960Z,22.48
2023-09-13T18:17:22.519Z,22.42
2023-09-13T18:19:49.220Z,22.37
2023-09-13T18:22:15.988Z,22.34
2023-09-13T18:24:42.595Z,22.28
2023-09-13T18:27:10.356Z,22.24
2023-09-13T18:29:38.169Z,22.19
2023-09-13T18:32:05.468Z,22.14
2023-09-13T18:34:32.695Z,22.12
2023-09-13T18:36:59.654Z,22.07
2023-09-13T18:39:26.590Z,22.03
2023-09-13T18:41:53.333Z,21.98
2023-09-13T18:44:21.097Z,21.94
2023-09-13T18:46:47.869Z,21.93
2023-09-13T18:49:14.518Z,21.92
2023-09-13T18:51:42.953Z,21.88
2023-09-13T18:54:11.578Z,21.82
2023-09-13T18:56:38.219Z,21.78
2023-09-13T18:59:04.818Z,21.75
2023-09-13T19:01:31.696Z,21.74
2023-09-13T19:03:58.706Z,21.70
2023-09-13T19:06:25.628Z,21.67
2023-09-13T19:08:54.817Z,21.67
2023-09-13T19:11:25.174Z,21.68
2023-09-13T19:13:52.823Z,21.67
2023-09-13T19:16:19.583Z,21.67
2023-09-13T19:18:46.378Z,21.69
2023-09-13T19:21:18.508Z,21.69
2023-09-13T19:23:48.143Z,21.69
2023-09-13T19:26:16.075Z,21.72
2023-09-13T19:28:43.711Z,21.72
2023-09-13T19:31:10.740Z,21.72
2023-09-13T19:33:39.514Z,21.72
2023-09-13T19:36:08.292Z,21.70
2023-09-13T19:38:36.870Z,21.68
2023-09-13T19:41:04.853Z,21.67
2023-09-13T19:43:33.167Z,21.64
2023-09-13T19:46:02.197Z,21.66
2023-09-13T19:48:30.056Z,21.66
2023-09-13T19:51:11.712Z,21.61
2023-09-13T19:53:39.208Z,21.54
2023-09-13T19:56:07.879Z,21.48
2023-09-13T19:58:38.684Z,21.42
2023-09-13T20:01:10.898Z,21.37
2023-09-13T20:03:38.921Z,21.35
2023-09-13T20:06:13.635Z,21.30
2023-09-13T20:08:40.774Z,21.26
2023-09-13T20:11:07.580Z,21.19
2023-09-13T20:13:34.234Z,21.13
2023-09-13T20:16:00.930Z,21.05
2023-09-13T20:18:28.004Z,21.01
2023-09-13T20:20:57.873Z,20.96
2023-09-13T20:23:25.550Z,20.89
2023-09-13T20:25:56.885Z,20.85
2023-09-13T20:28:25.560Z,20.76
2023-09-13T20:30:52.332Z,20.69
2023-09-13T20:33:19.047Z,20.62
2023-09-13T20:35:46.583Z,20.58
2023-09-13T20:38:13.628Z,20.52
2023-09-13T20:40:40.342Z,20.47
2023-09-13T20:43:07.079Z,20.45
2023-09-13T20:45:33.761Z,20.41
2023-09-13T20:48:00.763Z,20.37
2023-09-13T20:50:27.846Z,20.32
2023-09-13T20:52:55.199Z,20.24
2023-09-13T20:55:23.083Z,20.18
2023-09-13T20:57:49.886Z,20.12
2023-09-13T21:00:16.686Z,20.04
2023-09-13T21:02:43.436Z,19.97
2023-09-13T21:05:10.090Z,19.92
2023-09-13T21:07:36.723Z,19.88
2023-09-13T21:10:03.766Z,19.83
2023-09-13T21:12:30.553Z,19.78
2023-09-13T21:14:57.892Z,19.72
2023-09-13T21:17:24.710Z,19.68
2023-09-13T21:19:52.664Z,19.65
2023-09-13T21:22:19.401Z,19.63
2023-09-13T21:24:48.227Z,19.57
2023-09-13T21:27:14.931Z,19.54
2023-09-13T21:29:41.666Z,19.48
2023-09-13T21:32:08.843Z,19.43
2023-09-13T21:34:46.712Z,19.37
2023-09-13T21:37:17.577Z,19.27
2023-09-13T21:39:44.294Z,19.30
2023-09-13T21:42:12.358Z,19.28
2023-09-13T21:44:38.953Z,19.28
2023-09-13T21:47:05.637Z,19.28
2023-09-13T21:49:32.202Z,19.22
2023-09-13T21:51:58.850Z,19.13
2023-09-13T21:54:25.623Z,19.09
2023-09-13T21:56:52.295Z,19.05
2023-09-13T21:59:18.921Z,19.01
2023-09-13T22:01:45.571Z,18.99
2023-09-13T22:04:12.436Z,18.95
2023-09-13T22:06:39.223Z,18.91
2023-09-13T22:09:07.103Z,18.87
2023-09-13T22:11:33.698Z,18.81
2023-09-13T22:14:00.838Z,18.77
2023-09-13T22:16:29.097Z,18.74
2023-09-13T22:18:56.238Z,18.70
2023-09-13T22:21:23.755Z,18.64
2023-09-13T22:23:50.385Z,18.58
2023-09-13T22:26:18.353Z,18.54
2023-09-13T22:28:45.570Z,18.52
2023-09-13T22:31:17.055Z,18.50
2023-09-13T22:33:43.872Z,18.46
2023-09-13T22:36:11.644Z,18.44
2023-09-13T22:38:38.629Z,18.43
2023-09-13T22:41:07.542Z,18.39
2023-09-13T22:43:34.429Z,18.36
2023-09-13T22:46:08.778Z,18.31
2023-09-13T22:48:35.977Z,18.30
2023-09-13T22:51:02.654Z,18.26
2023-09-13T22:53:29.309Z,18.24
2023-09-13T22:55:55.994Z,18.23
2023-09-13T22:58:22.679Z,18.15
2023-09-13T23:00:49.457Z,18.11
2023-09-13T23:03:21.782Z,18.09
2023-09-13T23:06:00.434Z,18.03
2023-09-13T23:08:27.048Z,17.98
2023-09-13T23:11:00.694Z,17.94
2023-09-13T23:13:27.293Z,17.92
2023-09-13T23:16:03.901Z,17.89
2023-09-13T23:18:32.174Z,17.87
2023-09-13T23:20:59.287Z,17.84
2023-09-13T23:23:26.454Z,17.82
2023-09-13T23:26:00.225Z,17.78
2023-09-13T23:28:26.872Z,17.75
2023-09-13T23:31:04.991Z,17.71
2023-09-13T23:33:31.835Z,17.69
2023-09-13T23:35:58.414Z,17.65
2023-09-13T23:38:25.505Z,17.62
2023-09-13T23:40:52.212Z,17.57
2023-09-13T23:43:18.935Z,17.54
2023-09-13T23:45:46.950Z,17.49
2023-09-13T23:48:14.276Z,17.46
2023-09-13T23:50:41.072Z,17.43
2023-09-13T23:53:07.634Z,17.43
2023-09-13T23:55:34.228Z,17.39
2023-09-13T23:58:00.837Z,17.35
